sensor_id;sensor_type;location;lat;lon;timestamp;temperature;humidity
22379;DHT22;11357;49.990;7.370;2022-11-20T00:00:37;7.30;86.60
22379;DHT22;11357;49.990;7.370;2022-11-20T00:03:02;7.40;86.60
22379;DHT22;11357;49.990;7.370;2022-11-20T00:05:28;7.30;86.60
22379;DHT22;11357;49.990;7.370;2022-11-20T00:07:54;7.30;86.60
22379;DHT22;11357;49.990;7.370;2022-11-20T00:10:19;7.40;86.70
22379;DHT22;11357;49.990;7.370;2022-11-20T00:12:45;7.40;86.60
22379;DHT22;11357;49.990;7.370;2022-11-20T00:15:11;7.40;86.50
22379;DHT22;11357;49.990;7.370;2022-11-20T00:17:36;7.40;86.40
22379;DHT22;11357;49.990;7.370;2022-11-20T00:20:02;7.40;86.40
22379;DHT22;11357;49.990;7.370;2022-11-20T00:22:28;7.40;86.40
22379;DHT22;11357;49.990;7.370;2022-11-20T00:24:54;7.40;86.40
22379;DHT22;11357;49.990;7.370;2022-11-20T00:27:19;7.40;86.40
22379;DHT22;11357;49.990;7.370;2022-11-20T00:29:45;7.40;86.40
22379;DHT22;11357;49.990;7.370;2022-11-20T00:32:11;7.40;86.50
22379;DHT22;11357;49.990;7.370;2022-11-20T00:34:36;7.40;86.40
22379;DHT22;11357;49.990;7.370;2022-11-20T00:37:02;7.40;86.50
22379;DHT22;11357;49.990;7.370;2022-11-20T00:39:28;7.30;86.40
22379;DHT22;11357;49.990;7.370;2022-11-20T00:41:53;7.30;86.50
22379;DHT22;11357;49.990;7.370;2022-11-20T00:44:19;7.40;86.60
22379;DHT22;11357;49.990;7.370;2022-11-20T00:46:45;7.40;86.50
22379;DHT22;11357;49.990;7.370;2022-11-20T00:49:10;7.40;86.40
22379;DHT22;11357;49.990;7.370;2022-11-20T00:51:36;7.40;86.40
22379;DHT22;11357;49.990;7.370;2022-11-20T00:54:05;7.40;86.40
22379;DHT22;11357;49.990;7.370;2022-11-20T00:56:31;7.40;86.50
22379;DHT22;11357;49.990;7.370;2022-11-20T00:58:59;7.30;86.40
22379;DHT22;11357;49.990;7.370;2022-11-20T01:01:26;7.30;86.50
22379;DHT22;11357;49.990;7.370;2022-11-20T01:03:56;7.30;86.60
22379;DHT22;11357;49.990;7.370;2022-11-20T01:06:28;7.20;86.60
22379;DHT22;11357;49.990;7.370;2022-11-20T01:08:56;7.20;86.70
22379;DHT22;11357;49.990;7.370;2022-11-20T01:11:25;7.30;86.80
22379;DHT22;11357;49.990;7.370;2022-11-20T01:13:52;7.30;86.70
22379;DHT22;11357;49.990;7.370;2022-11-20T01:16:26;7.30;86.70
22379;DHT22;11357;49.990;7.370;2022-11-20T01:18:55;7.30;86.70
22379;DHT22;11357;49.990;7.370;2022-11-20T01:21:30;7.30;86.70
22379;DHT22;11357;49.990;7.370;2022-11-20T01:23:56;7.30;86.70
22379;DHT22;11357;49.990;7.370;2022-11-20T01:26:25;7.30;86.60
22379;DHT22;11357;49.990;7.370;2022-11-20T01:28:52;7.40;86.70
22379;DHT22;11357;49.990;7.370;2022-11-20T01:33:48;7.30;86.70
22379;DHT22;11357;49.990;7.370;2022-11-20T01:36:15;7.30;86.70
22379;DHT22;11357;49.990;7.370;2022-11-20T01:38:42;7.30;86.70
22379;DHT22;11357;49.990;7.370;2022-11-20T01:41:08;7.30;86.80
22379;DHT22;11357;49.990;7.370;2022-11-20T01:43:35;7.30;86.80
22379;DHT22;11357;49.990;7.370;2022-11-20T01:46:13;7.30;86.80
22379;DHT22;11357;49.990;7.370;2022-11-20T01:53:54;7.30;86.80
22379;DHT22;11357;49.990;7.370;2022-11-20T01:56:21;7.40;86.90
22379;DHT22;11357;49.990;7.370;2022-11-20T01:58:51;7.40;86.90
22379;DHT22;11357;49.990;7.370;2022-11-20T02:01:20;7.40;86.90
22379;DHT22;11357;49.990;7.370;2022-11-20T02:03:46;7.30;86.90
22379;DHT22;11357;49.990;7.370;2022-11-20T02:09:06;7.40;87.00
22379;DHT22;11357;49.990;7.370;2022-11-20T02:11:32;7.40;86.90
22379;DHT22;11357;49.990;7.370;2022-11-20T02:13:58;7.50;87.00
22379;DHT22;11357;49.990;7.370;2022-11-20T02:16:27;7.50;87.00
22379;DHT22;11357;49.990;7.370;2022-11-20T02:18:55;7.50;87.00
22379;DHT22;11357;49.990;7.370;2022-11-20T02:24:07;7.50;87.00
22379;DHT22;11357;49.990;7.370;2022-11-20T02:26:41;7.50;87.00
22379;DHT22;11357;49.990;7.370;2022-11-20T02:29:08;7.50;87.00
22379;DHT22;11357;49.990;7.370;2022-11-20T02:31:37;7.60;87.00
22379;DHT22;11357;49.990;7.370;2022-11-20T02:34:03;7.50;86.90
22379;DHT22;11357;49.990;7.370;2022-11-20T02:36:30;7.50;86.90
22379;DHT22;11357;49.990;7.370;2022-11-20T02:38:57;7.50;86.90
22379;DHT22;11357;49.990;7.370;2022-11-20T02:41:34;7.50;86.90
22379;DHT22;11357;49.990;7.370;2022-11-20T02:44:01;7.50;87.00
22379;DHT22;11357;49.990;7.370;2022-11-20T02:46:27;7.50;87.00
22379;DHT22;11357;49.990;7.370;2022-11-20T02:48:53;7.50;87.10
22379;DHT22;11357;49.990;7.370;2022-11-20T02:51:19;7.50;87.10
22379;DHT22;11357;49.990;7.370;2022-11-20T02:53:44;7.50;87.10
22379;DHT22;11357;49.990;7.370;2022-11-20T02:56:10;7.40;87.10
22379;DHT22;11357;49.990;7.370;2022-11-20T02:58:36;7.40;87.20
22379;DHT22;11357;49.990;7.370;2022-11-20T03:01:02;7.50;87.10
22379;DHT22;11357;49.990;7.370;2022-11-20T03:03:27;7.40;87.10
22379;DHT22;11357;49.990;7.370;2022-11-20T03:05:53;7.50;87.20
22379;DHT22;11357;49.990;7.370;2022-11-20T03:08:19;7.50;87.20
22379;DHT22;11357;49.990;7.370;2022-11-20T03:10:44;7.50;87.30
22379;DHT22;11357;49.990;7.370;2022-11-20T03:13:10;7.50;87.30
22379;DHT22;11357;49.990;7.370;2022-11-20T03:15:37;7.50;87.30
22379;DHT22;11357;49.990;7.370;2022-11-20T03:18:03;7.50;87.30
22379;DHT22;11357;49.990;7.370;2022-11-20T03:20:29;7.50;87.20
22379;DHT22;11357;49.990;7.370;2022-11-20T03:22:55;7.60;87.30
22379;DHT22;11357;49.990;7.370;2022-11-20T03:25:21;7.60;87.30
22379;DHT22;11357;49.990;7.370;2022-11-20T03:27:47;7.60;87.30
22379;DHT22;11357;49.990;7.370;2022-11-20T03:30:13;7.60;87.40
22379;DHT22;11357;49.990;7.370;2022-11-20T03:32:39;7.60;87.40
22379;DHT22;11357;49.990;7.370;2022-11-20T03:35:05;7.60;87.40
22379;DHT22;11357;49.990;7.370;2022-11-20T03:37:32;7.60;87.50
22379;DHT22;11357;49.990;7.370;2022-11-20T03:39:57;7.60;87.50
22379;DHT22;11357;49.990;7.370;2022-11-20T03:42:23;7.60;87.50
22379;DHT22;11357;49.990;7.370;2022-11-20T03:45:07;7.60;87.50
22379;DHT22;11357;49.990;7.370;2022-11-20T03:47:33;7.60;87.50
22379;DHT22;11357;49.990;7.370;2022-11-20T03:49:59;7.60;87.60
22379;DHT22;11357;49.990;7.370;2022-11-20T03:52:25;7.60;87.50
22379;DHT22;11357;49.990;7.370;2022-11-20T03:54:50;7.70;87.70
22379;DHT22;11357;49.990;7.370;2022-11-20T03:57:16;7.60;87.60
22379;DHT22;11357;49.990;7.370;2022-11-20T03:59:42;7.70;87.80
22379;DHT22;11357;49.990;7.370;2022-11-20T04:02:07;7.70;87.80
22379;DHT22;11357;49.990;7.370;2022-11-20T04:04:33;7.70;87.80
22379;DHT22;11357;49.990;7.370;2022-11-20T04:06:59;7.70;87.80
22379;DHT22;11357;49.990;7.370;2022-11-20T04:09:25;7.70;87.90
22379;DHT22;11357;49.990;7.370;2022-11-20T04:11:50;7.60;87.80
22379;DHT22;11357;49.990;7.370;2022-11-20T04:14:16;7.60;87.80
22379;DHT22;11357;49.990;7.370;2022-11-20T04:16:42;7.60;87.90
22379;DHT22;11357;49.990;7.370;2022-11-20T04:19:14;7.50;88.10
22379;DHT22;11357;49.990;7.370;2022-11-20T04:21:41;7.60;88.20
22379;DHT22;11357;49.990;7.370;2022-11-20T04:24:07;7.60;88.10
22379;DHT22;11357;49.990;7.370;2022-11-20T04:26:33;7.60;88.20
22379;DHT22;11357;49.990;7.370;2022-11-20T04:29:00;7.60;88.20
22379;DHT22;11357;49.990;7.370;2022-11-20T04:31:28;7.70;88.10
22379;DHT22;11357;49.990;7.370;2022-11-20T04:33:55;7.60;88.00
22379;DHT22;11357;49.990;7.370;2022-11-20T04:36:23;7.60;88.20
22379;DHT22;11357;49.990;7.370;2022-11-20T04:38:53;7.70;88.30
22379;DHT22;11357;49.990;7.370;2022-11-20T04:41:21;7.70;88.30
22379;DHT22;11357;49.990;7.370;2022-11-20T04:43:51;7.70;88.20
22379;DHT22;11357;49.990;7.370;2022-11-20T04:46:20;7.70;88.30
22379;DHT22;11357;49.990;7.370;2022-11-20T04:48:46;7.80;88.30
22379;DHT22;11357;49.990;7.370;2022-11-20T04:51:12;7.80;88.20
22379;DHT22;11357;49.990;7.370;2022-11-20T04:53:38;7.80;88.20
22379;DHT22;11357;49.990;7.370;2022-11-20T04:56:08;7.80;88.10
22379;DHT22;11357;49.990;7.370;2022-11-20T04:58:35;7.80;88.10
22379;DHT22;11357;49.990;7.370;2022-11-20T05:03:41;7.90;88.20
22379;DHT22;11357;49.990;7.370;2022-11-20T05:06:07;7.90;88.20
22379;DHT22;11357;49.990;7.370;2022-11-20T05:08:33;7.90;88.20
22379;DHT22;11357;49.990;7.370;2022-11-20T05:11:08;7.90;88.20
22379;DHT22;11357;49.990;7.370;2022-11-20T05:13:34;7.90;88.30
22379;DHT22;11357;49.990;7.370;2022-11-20T05:16:08;8.00;88.20
22379;DHT22;11357;49.990;7.370;2022-11-20T05:18:35;8.00;88.20
22379;DHT22;11357;49.990;7.370;2022-11-20T05:21:01;8.00;88.10
22379;DHT22;11357;49.990;7.370;2022-11-20T05:23:27;8.00;88.10
22379;DHT22;11357;49.990;7.370;2022-11-20T05:25:54;8.10;88.10
22379;DHT22;11357;49.990;7.370;2022-11-20T05:28:21;8.00;88.10
22379;DHT22;11357;49.990;7.370;2022-11-20T05:30:47;8.10;88.20
22379;DHT22;11357;49.990;7.370;2022-11-20T05:33:12;8.10;88.10
22379;DHT22;11357;49.990;7.370;2022-11-20T05:35:38;8.10;88.10
22379;DHT22;11357;49.990;7.370;2022-11-20T05:38:04;8.10;88.20
22379;DHT22;11357;49.990;7.370;2022-11-20T05:40:30;8.10;88.20
22379;DHT22;11357;49.990;7.370;2022-11-20T05:42:55;8.00;88.10
22379;DHT22;11357;49.990;7.370;2022-11-20T05:45:21;8.10;88.30
22379;DHT22;11357;49.990;7.370;2022-11-20T05:47:47;8.10;88.20
22379;DHT22;11357;49.990;7.370;2022-11-20T05:50:14;8.10;88.20
22379;DHT22;11357;49.990;7.370;2022-11-20T05:52:40;8.10;88.30
22379;DHT22;11357;49.990;7.370;2022-11-20T05:55:06;8.10;88.20
22379;DHT22;11357;49.990;7.370;2022-11-20T05:57:32;8.10;88.20
22379;DHT22;11357;49.990;7.370;2022-11-20T05:59:58;8.10;88.30
22379;DHT22;11357;49.990;7.370;2022-11-20T06:02:24;8.00;88.30
22379;DHT22;11357;49.990;7.370;2022-11-20T06:04:50;8.10;88.40
22379;DHT22;11357;49.990;7.370;2022-11-20T06:07:15;8.10;88.40
22379;DHT22;11357;49.990;7.370;2022-11-20T06:09:41;8.10;88.50
22379;DHT22;11357;49.990;7.370;2022-11-20T06:12:07;8.10;88.50
22379;DHT22;11357;49.990;7.370;2022-11-20T06:14:33;8.10;88.50
22379;DHT22;11357;49.990;7.370;2022-11-20T06:16:59;8.10;88.50
22379;DHT22;11357;49.990;7.370;2022-11-20T06:19:24;8.10;88.50
22379;DHT22;11357;49.990;7.370;2022-11-20T06:21:50;8.10;88.50
22379;DHT22;11357;49.990;7.370;2022-11-20T06:24:16;8.20;88.60
22379;DHT22;11357;49.990;7.370;2022-11-20T06:26:43;8.20;88.80
22379;DHT22;11357;49.990;7.370;2022-11-20T06:29:09;8.10;88.80
22379;DHT22;11357;49.990;7.370;2022-11-20T06:31:34;8.20;88.90
22379;DHT22;11357;49.990;7.370;2022-11-20T06:34:03;8.20;88.90
22379;DHT22;11357;49.990;7.370;2022-11-20T06:36:30;8.30;89.00
22379;DHT22;11357;49.990;7.370;2022-11-20T06:38:55;8.30;88.90
22379;DHT22;11357;49.990;7.370;2022-11-20T06:41:22;8.30;88.90
22379;DHT22;11357;49.990;7.370;2022-11-20T06:43:48;8.30;89.00
22379;DHT22;11357;49.990;7.370;2022-11-20T06:46:15;8.30;89.00
22379;DHT22;11357;49.990;7.370;2022-11-20T06:48:44;8.40;89.20
22379;DHT22;11357;49.990;7.370;2022-11-20T06:51:10;8.40;89.20
22379;DHT22;11357;49.990;7.370;2022-11-20T06:53:36;8.40;89.30
22379;DHT22;11357;49.990;7.370;2022-11-20T06:56:02;8.40;89.50
22379;DHT22;11357;49.990;7.370;2022-11-20T06:58:30;8.30;89.50
22379;DHT22;11357;49.990;7.370;2022-11-20T07:01:05;8.30;89.70
22379;DHT22;11357;49.990;7.370;2022-11-20T07:03:31;8.30;89.90
22379;DHT22;11357;49.990;7.370;2022-11-20T07:05:58;8.40;89.90
22379;DHT22;11357;49.990;7.370;2022-11-20T07:08:24;8.40;89.90
22379;DHT22;11357;49.990;7.370;2022-11-20T07:10:50;8.40;90.00
22379;DHT22;11357;49.990;7.370;2022-11-20T07:13:16;8.40;89.90
22379;DHT22;11357;49.990;7.370;2022-11-20T07:15:41;8.40;90.00
22379;DHT22;11357;49.990;7.370;2022-11-20T07:18:07;8.50;89.90
22379;DHT22;11357;49.990;7.370;2022-11-20T07:20:33;8.50;89.90
22379;DHT22;11357;49.990;7.370;2022-11-20T07:22:59;8.50;90.20
22379;DHT22;11357;49.990;7.370;2022-11-20T07:25:26;8.50;89.90
22379;DHT22;11357;49.990;7.370;2022-11-20T07:27:52;8.50;89.90
22379;DHT22;11357;49.990;7.370;2022-11-20T07:30:19;8.60;90.00
22379;DHT22;11357;49.990;7.370;2022-11-20T07:32:51;8.60;89.80
22379;DHT22;11357;49.990;7.370;2022-11-20T07:35:18;8.60;89.90
22379;DHT22;11357;49.990;7.370;2022-11-20T07:37:44;8.60;89.80
22379;DHT22;11357;49.990;7.370;2022-11-20T07:40:12;8.60;89.90
22379;DHT22;11357;49.990;7.370;2022-11-20T07:42:38;8.50;89.80
22379;DHT22;11357;49.990;7.370;2022-11-20T07:45:04;8.50;89.80
22379;DHT22;11357;49.990;7.370;2022-11-20T07:47:35;8.50;90.00
22379;DHT22;11357;49.990;7.370;2022-11-20T07:50:01;8.50;90.00
22379;DHT22;11357;49.990;7.370;2022-11-20T07:52:28;8.50;89.90
22379;DHT22;11357;49.990;7.370;2022-11-20T07:54:54;8.40;90.00
22379;DHT22;11357;49.990;7.370;2022-11-20T07:57:19;8.50;90.30
22379;DHT22;11357;49.990;7.370;2022-11-20T07:59:45;8.40;89.90
22379;DHT22;11357;49.990;7.370;2022-11-20T08:02:11;8.40;90.00
22379;DHT22;11357;49.990;7.370;2022-11-20T08:04:37;8.40;90.00
22379;DHT22;11357;49.990;7.370;2022-11-20T08:07:02;8.40;90.00
22379;DHT22;11357;49.990;7.370;2022-11-20T08:09:28;8.30;89.90
22379;DHT22;11357;49.990;7.370;2022-11-20T08:11:54;8.20;90.00
22379;DHT22;11357;49.990;7.370;2022-11-20T08:14:39;8.20;90.00
22379;DHT22;11357;49.990;7.370;2022-11-20T08:17:04;8.20;90.00
22379;DHT22;11357;49.990;7.370;2022-11-20T08:19:30;8.10;90.00
22379;DHT22;11357;49.990;7.370;2022-11-20T08:21:56;8.10;89.90
22379;DHT22;11357;49.990;7.370;2022-11-20T08:24:21;8.10;89.80
22379;DHT22;11357;49.990;7.370;2022-11-20T08:26:47;8.00;90.00
22379;DHT22;11357;49.990;7.370;2022-11-20T08:29:13;8.00;89.90
22379;DHT22;11357;49.990;7.370;2022-11-20T08:31:38;8.10;89.90
22379;DHT22;11357;49.990;7.370;2022-11-20T08:34:04;8.10;90.20
22379;DHT22;11357;49.990;7.370;2022-11-20T08:36:33;8.10;89.70
22379;DHT22;11357;49.990;7.370;2022-11-20T08:38:59;8.10;89.70
22379;DHT22;11357;49.990;7.370;2022-11-20T08:41:25;8.20;89.70
22379;DHT22;11357;49.990;7.370;2022-11-20T08:44:03;8.30;89.60
22379;DHT22;11357;49.990;7.370;2022-11-20T08:46:40;8.30;89.40
22379;DHT22;11357;49.990;7.370;2022-11-20T08:49:10;8.40;89.20
22379;DHT22;11357;49.990;7.370;2022-11-20T08:51:37;8.50;89.10
22379;DHT22;11357;49.990;7.370;2022-11-20T08:54:04;8.40;89.00
22379;DHT22;11357;49.990;7.370;2022-11-20T08:56:30;8.40;89.10
22379;DHT22;11357;49.990;7.370;2022-11-20T08:58:56;8.30;89.10
22379;DHT22;11357;49.990;7.370;2022-11-20T09:01:22;8.30;89.20
22379;DHT22;11357;49.990;7.370;2022-11-20T09:03:49;8.30;89.30
22379;DHT22;11357;49.990;7.370;2022-11-20T09:06:15;8.40;89.20
22379;DHT22;11357;49.990;7.370;2022-11-20T09:08:41;8.40;89.00
22379;DHT22;11357;49.990;7.370;2022-11-20T09:11:07;8.40;89.00
22379;DHT22;11357;49.990;7.370;2022-11-20T09:13:34;8.50;89.00
22379;DHT22;11357;49.990;7.370;2022-11-20T09:16:04;8.50;88.90
22379;DHT22;11357;49.990;7.370;2022-11-20T09:18:30;8.50;89.00
22379;DHT22;11357;49.990;7.370;2022-11-20T09:21:02;8.60;88.90
22379;DHT22;11357;49.990;7.370;2022-11-20T09:23:34;8.70;88.70
22379;DHT22;11357;49.990;7.370;2022-11-20T09:26:11;8.80;88.60
22379;DHT22;11357;49.990;7.370;2022-11-20T09:28:37;8.80;88.50
22379;DHT22;11357;49.990;7.370;2022-11-20T09:31:07;8.90;88.40
22379;DHT22;11357;49.990;7.370;2022-11-20T09:33:34;9.00;88.40
22379;DHT22;11357;49.990;7.370;2022-11-20T09:36:00;9.10;88.40
22379;DHT22;11357;49.990;7.370;2022-11-20T09:38:26;9.30;88.30
22379;DHT22;11357;49.990;7.370;2022-11-20T09:41:04;9.40;88.10
22379;DHT22;11357;49.990;7.370;2022-11-20T09:54:19;9.90;87.80
22379;DHT22;11357;49.990;7.370;2022-11-20T09:56:53;9.90;87.70
22379;DHT22;11357;49.990;7.370;2022-11-20T09:59:39;10.00;87.70
22379;DHT22;11357;49.990;7.370;2022-11-20T10:16:51;10.00;88.00
22379;DHT22;11357;49.990;7.370;2022-11-20T10:19:42;10.10;88.00
22379;DHT22;11357;49.990;7.370;2022-11-20T10:25:15;10.20;87.90
22379;DHT22;11357;49.990;7.370;2022-11-20T10:30:18;10.30;87.80
22379;DHT22;11357;49.990;7.370;2022-11-20T10:33:06;10.30;87.90
22379;DHT22;11357;49.990;7.370;2022-11-20T10:38:23;10.40;87.90
22379;DHT22;11357;49.990;7.370;2022-11-20T10:40:57;10.40;87.80
22379;DHT22;11357;49.990;7.370;2022-11-20T10:46:43;10.60;87.80
22379;DHT22;11357;49.990;7.370;2022-11-20T10:49:15;10.70;87.50
22379;DHT22;11357;49.990;7.370;2022-11-20T10:51:59;10.80;87.50
22379;DHT22;11357;49.990;7.370;2022-11-20T11:00:12;10.90;87.40
22379;DHT22;11357;49.990;7.370;2022-11-20T11:02:52;10.80;87.60
22379;DHT22;11357;49.990;7.370;2022-11-20T11:08:10;10.80;87.90
22379;DHT22;11357;49.990;7.370;2022-11-20T11:10:48;10.80;87.80
22379;DHT22;11357;49.990;7.370;2022-11-20T11:13:24;10.70;87.90
22379;DHT22;11357;49.990;7.370;2022-11-20T11:15:50;10.70;88.00
22379;DHT22;11357;49.990;7.370;2022-11-20T11:21:32;10.60;88.20
22379;DHT22;11357;49.990;7.370;2022-11-20T11:24:04;10.70;88.30
22379;DHT22;11357;49.990;7.370;2022-11-20T11:26:30;10.70;88.60
22379;DHT22;11357;49.990;7.370;2022-11-20T11:29:01;10.80;88.70
22379;DHT22;11357;49.990;7.370;2022-11-20T11:31:29;10.90;88.70
22379;DHT22;11357;49.990;7.370;2022-11-20T11:34:15;10.90;88.50
22379;DHT22;11357;49.990;7.370;2022-11-20T11:36:42;10.90;88.60
22379;DHT22;11357;49.990;7.370;2022-11-20T11:39:16;10.90;88.60
22379;DHT22;11357;49.990;7.370;2022-11-20T11:41:43;11.00;88.70
22379;DHT22;11357;49.990;7.370;2022-11-20T11:47:04;11.30;88.80
22379;DHT22;11357;49.990;7.370;2022-11-20T11:49:30;11.50;88.50
22379;DHT22;11357;49.990;7.370;2022-11-20T11:52:20;11.60;88.20
22379;DHT22;11357;49.990;7.370;2022-11-20T11:54:57;11.70;88.00
22379;DHT22;11357;49.990;7.370;2022-11-20T12:00:12;11.80;87.80
22379;DHT22;11357;49.990;7.370;2022-11-20T12:05:30;12.10;88.00
22379;DHT22;11357;49.990;7.370;2022-11-20T12:16:36;11.80;87.10
22379;DHT22;11357;49.990;7.370;2022-11-20T12:19:02;11.80;86.80
22379;DHT22;11357;49.990;7.370;2022-11-20T12:24:16;11.60;86.90
22379;DHT22;11357;49.990;7.370;2022-11-20T12:29:32;11.60;87.00
22379;DHT22;11357;49.990;7.370;2022-11-20T12:35:00;11.70;86.70
22379;DHT22;11357;49.990;7.370;2022-11-20T12:48:42;11.80;85.70
22379;DHT22;11357;49.990;7.370;2022-11-20T12:51:39;11.80;85.50
22379;DHT22;11357;49.990;7.370;2022-11-20T13:08:25;11.70;84.90
22379;DHT22;11357;49.990;7.370;2022-11-20T13:16:52;11.60;84.40
22379;DHT22;11357;49.990;7.370;2022-11-20T13:19:20;11.60;84.40
22379;DHT22;11357;49.990;7.370;2022-11-20T13:21:49;11.70;84.50
22379;DHT22;11357;49.990;7.370;2022-11-20T13:26:44;11.70;84.10
22379;DHT22;11357;49.990;7.370;2022-11-20T13:29:16;11.60;83.80
22379;DHT22;11357;49.990;7.370;2022-11-20T13:31:47;11.60;83.90
22379;DHT22;11357;49.990;7.370;2022-11-20T13:34:26;11.60;83.80
22379;DHT22;11357;49.990;7.370;2022-11-20T13:36:56;11.60;83.50
22379;DHT22;11357;49.990;7.370;2022-11-20T13:39:33;11.60;83.30
22379;DHT22;11357;49.990;7.370;2022-11-20T13:44:43;11.50;83.10
22379;DHT22;11357;49.990;7.370;2022-11-20T13:47:36;11.40;83.20
22379;DHT22;11357;49.990;7.370;2022-11-20T13:50:04;11.30;83.10
22379;DHT22;11357;49.990;7.370;2022-11-20T13:52:47;11.40;83.20
22379;DHT22;11357;49.990;7.370;2022-11-20T13:55:23;11.40;83.80
22379;DHT22;11357;49.990;7.370;2022-11-20T13:58:04;11.40;83.60
22379;DHT22;11357;49.990;7.370;2022-11-20T14:00:32;11.40;83.50
22379;DHT22;11357;49.990;7.370;2022-11-20T14:03:23;11.40;83.30
22379;DHT22;11357;49.990;7.370;2022-11-20T14:05:55;11.20;83.30
22379;DHT22;11357;49.990;7.370;2022-11-20T14:08:35;11.20;83.20
22379;DHT22;11357;49.990;7.370;2022-11-20T14:11:24;11.10;83.00
22379;DHT22;11357;49.990;7.370;2022-11-20T14:16:30;10.90;83.20
22379;DHT22;11357;49.990;7.370;2022-11-20T14:18:57;10.90;83.50
22379;DHT22;11357;49.990;7.370;2022-11-20T14:21:34;10.90;83.70
22379;DHT22;11357;49.990;7.370;2022-11-20T14:26:30;11.00;83.80
22379;DHT22;11357;49.990;7.370;2022-11-20T14:28:56;11.10;83.70
22379;DHT22;11357;49.990;7.370;2022-11-20T14:31:25;11.00;83.70
22379;DHT22;11357;49.990;7.370;2022-11-20T14:33:52;11.00;83.70
22379;DHT22;11357;49.990;7.370;2022-11-20T14:36:21;11.00;83.70
22379;DHT22;11357;49.990;7.370;2022-11-20T14:38:48;11.00;83.80
22379;DHT22;11357;49.990;7.370;2022-11-20T14:41:23;11.10;83.80
22379;DHT22;11357;49.990;7.370;2022-11-20T14:44:09;11.00;83.70
22379;DHT22;11357;49.990;7.370;2022-11-20T14:46:59;11.00;83.90
22379;DHT22;11357;49.990;7.370;2022-11-20T14:49:45;11.00;84.00
22379;DHT22;11357;49.990;7.370;2022-11-20T14:52:30;11.00;84.00
22379;DHT22;11357;49.990;7.370;2022-11-20T14:54:57;10.90;83.90
22379;DHT22;11357;49.990;7.370;2022-11-20T14:57:55;10.90;84.00
22379;DHT22;11357;49.990;7.370;2022-11-20T15:00:25;10.80;84.10
22379;DHT22;11357;49.990;7.370;2022-11-20T15:02:51;10.80;84.40
22379;DHT22;11357;49.990;7.370;2022-11-20T15:05:23;10.80;84.10
22379;DHT22;11357;49.990;7.370;2022-11-20T15:08:25;10.70;84.20
22379;DHT22;11357;49.990;7.370;2022-11-20T15:10:52;10.70;84.40
22379;DHT22;11357;49.990;7.370;2022-11-20T15:13:56;10.70;84.30
22379;DHT22;11357;49.990;7.370;2022-11-20T15:16:23;10.70;84.40
22379;DHT22;11357;49.990;7.370;2022-11-20T15:18:49;10.60;84.30
22379;DHT22;11357;49.990;7.370;2022-11-20T15:21:17;10.60;84.30
22379;DHT22;11357;49.990;7.370;2022-11-20T15:23:44;10.60;84.30
22379;DHT22;11357;49.990;7.370;2022-11-20T15:26:11;10.50;84.40
22379;DHT22;11357;49.990;7.370;2022-11-20T15:28:47;10.50;84.50
22379;DHT22;11357;49.990;7.370;2022-11-20T15:31:41;10.50;84.50
22379;DHT22;11357;49.990;7.370;2022-11-20T15:34:19;10.40;84.60
22379;DHT22;11357;49.990;7.370;2022-11-20T15:36:47;10.40;84.50
22379;DHT22;11357;49.990;7.370;2022-11-20T15:39:18;10.40;84.60
22379;DHT22;11357;49.990;7.370;2022-11-20T15:41:44;10.30;84.60
22379;DHT22;11357;49.990;7.370;2022-11-20T15:44:10;10.20;84.40
22379;DHT22;11357;49.990;7.370;2022-11-20T15:46:41;10.20;84.60
22379;DHT22;11357;49.990;7.370;2022-11-20T15:49:14;10.10;84.70
22379;DHT22;11357;49.990;7.370;2022-11-20T15:51:43;10.00;84.80
22379;DHT22;11357;49.990;7.370;2022-11-20T15:54:12;10.00;84.80
22379;DHT22;11357;49.990;7.370;2022-11-20T15:56:49;9.90;84.70
22379;DHT22;11357;49.990;7.370;2022-11-20T15:59:15;9.80;84.80
22379;DHT22;11357;49.990;7.370;2022-11-20T16:01:41;9.90;84.90
22379;DHT22;11357;49.990;7.370;2022-11-20T16:04:15;9.90;84.90
22379;DHT22;11357;49.990;7.370;2022-11-20T16:06:41;9.80;84.80
22379;DHT22;11357;49.990;7.370;2022-11-20T16:09:08;9.80;84.60
22379;DHT22;11357;49.990;7.370;2022-11-20T16:11:34;9.70;84.70
22379;DHT22;11357;49.990;7.370;2022-11-20T16:14:03;9.70;84.90
22379;DHT22;11357;49.990;7.370;2022-11-20T16:16:49;9.70;84.90
22379;DHT22;11357;49.990;7.370;2022-11-20T16:19:17;9.70;84.90
22379;DHT22;11357;49.990;7.370;2022-11-20T16:21:46;9.60;84.90
22379;DHT22;11357;49.990;7.370;2022-11-20T16:24:21;9.60;85.00
22379;DHT22;11357;49.990;7.370;2022-11-20T16:26:47;9.50;85.20
22379;DHT22;11357;49.990;7.370;2022-11-20T16:29:13;9.50;85.20
22379;DHT22;11357;49.990;7.370;2022-11-20T16:31:39;9.50;85.30
22379;DHT22;11357;49.990;7.370;2022-11-20T16:34:07;9.50;85.40
22379;DHT22;11357;49.990;7.370;2022-11-20T16:36:49;9.50;85.40
22379;DHT22;11357;49.990;7.370;2022-11-20T16:39:15;9.50;85.50
22379;DHT22;11357;49.990;7.370;2022-11-20T16:41:42;9.50;85.40
22379;DHT22;11357;49.990;7.370;2022-11-20T16:44:10;9.50;85.50
22379;DHT22;11357;49.990;7.370;2022-11-20T16:47:08;9.50;85.50
22379;DHT22;11357;49.990;7.370;2022-11-20T16:49:33;9.50;85.80
22379;DHT22;11357;49.990;7.370;2022-11-20T16:51:59;9.50;85.70
22379;DHT22;11357;49.990;7.370;2022-11-20T16:54:25;9.50;85.90
22379;DHT22;11357;49.990;7.370;2022-11-20T16:56:53;9.40;86.00
22379;DHT22;11357;49.990;7.370;2022-11-20T16:59:19;9.40;86.10
22379;DHT22;11357;49.990;7.370;2022-11-20T17:01:44;9.30;86.40
22379;DHT22;11357;49.990;7.370;2022-11-20T17:04:13;9.30;86.40
22379;DHT22;11357;49.990;7.370;2022-11-20T17:06:42;9.30;87.40
22379;DHT22;11357;49.990;7.370;2022-11-20T17:09:09;9.30;86.80
22379;DHT22;11357;49.990;7.370;2022-11-20T17:11:35;9.30;86.80
22379;DHT22;11357;49.990;7.370;2022-11-20T17:14:02;9.40;86.90
22379;DHT22;11357;49.990;7.370;2022-11-20T17:16:35;9.30;87.00
22379;DHT22;11357;49.990;7.370;2022-11-20T17:19:02;9.30;87.10
22379;DHT22;11357;49.990;7.370;2022-11-20T17:22:03;9.30;87.20
22379;DHT22;11357;49.990;7.370;2022-11-20T17:24:45;9.30;87.40
22379;DHT22;11357;49.990;7.370;2022-11-20T17:27:11;9.40;87.20
22379;DHT22;11357;49.990;7.370;2022-11-20T17:29:38;9.40;87.40
22379;DHT22;11357;49.990;7.370;2022-11-20T17:32:09;9.40;87.40
22379;DHT22;11357;49.990;7.370;2022-11-20T17:34:36;9.30;87.50
22379;DHT22;11357;49.990;7.370;2022-11-20T17:37:01;9.20;87.60
22379;DHT22;11357;49.990;7.370;2022-11-20T17:39:27;9.20;87.80
22379;DHT22;11357;49.990;7.370;2022-11-20T17:41:53;9.10;87.80
22379;DHT22;11357;49.990;7.370;2022-11-20T17:44:37;9.10;88.00
22379;DHT22;11357;49.990;7.370;2022-11-20T17:47:03;9.00;88.20
22379;DHT22;11357;49.990;7.370;2022-11-20T17:49:29;9.00;88.40
22379;DHT22;11357;49.990;7.370;2022-11-20T17:51:55;8.90;88.50
22379;DHT22;11357;49.990;7.370;2022-11-20T17:54:20;8.90;88.60
22379;DHT22;11357;49.990;7.370;2022-11-20T17:56:46;8.90;88.60
22379;DHT22;11357;49.990;7.370;2022-11-20T17:59:30;8.90;88.70
22379;DHT22;11357;49.990;7.370;2022-11-20T18:01:56;8.90;88.80
22379;DHT22;11357;49.990;7.370;2022-11-20T18:04:21;8.90;89.10
22379;DHT22;11357;49.990;7.370;2022-11-20T18:06:47;8.80;89.30